Sun Valley, CA

09:30 AM PDT am 04. September 2015 (GMT -0700)
Burbank-Glendale-Pasadena | | Change Station
CLOSE
Current Station
Flughafen
Location: Burbank,
Höhe: 774 ft
Wetterstationen in der Umgebung

Höhe 774 ft 34.20 °N, 118.36 °W | Updated 37 minutes ago

Bedeckt
Bedeckt
68 °F
gefühlte 68 °F
N
6
Wind Wechselnd Wind aus Südost

Heute
Max. -- | schwach -- °F
--% Regenrisiko
Gestern
Max. -- | schwach -- °F
Precip. -- inch
6:28 AM 7:15 PM
Drittes Viertel, 58% visible
Druck 29.87 inch
Sichtweite 10.0 Meilen
Wolken Bedeckt 3600 ft
Taupunkt 55 °F
Feuchtigkeit 63%
Regen 0.00 inch
Schneehöhe Nicht verfügbar..
UV 1 von 12
Pollen 8.40 von 12
Luftqualität Nicht verfügbar..
Flu Activity Nicht verfügbar..
METAR KBUR 041553Z 13005KT 10SM OVC036 20/13 A2990 RMK AO2 SLP113 T02000128
Druck 29.87 inch
Sichtweite 10.0 Meilen
Wolken Bedeckt 3600 ft
Taupunkt 55 °F
Feuchtigkeit 63%
Regen 0.00 inch
Schneehöhe Nicht verfügbar..
UV 1 von 12
Pollen 8.40 von 12
Luftqualität Nicht verfügbar..
Flu Activity Nicht verfügbar..
METAR KBUR 041553Z 13005KT 10SM OVC036 20/13 A2990 RMK AO2 SLP113 T02000128

10-Day Weather Forecast

×

Almanac

Astronomie

Sep. 04, 2015 Aufgang Untergang
Genaue Zeit
Bürgerliche Dämmerung
Nautische Dämmerung
Astronomische Dämmerung
Mond
Länge des sichtbaren Lichts
Tageslänge
Tomorrow will be .
, % of the Moon is Illuminated

Heutige Rekorde

State Highs State Lows

Community

WunderPhotos

Upload Photos

1,852,220 Fotos hochgeladen!

WunderBlogs® & News

Nearby

Luftqualität

  Luftqualität LQ Index Schadstoff
Not available.

Schneehöhe

Station Depth Höhe

Erdbebenaktivität

Stadt Distance Mag. Time & Date
Minimum magnitude displayed is 2.5.

küstennahe Wassertemperaturen

Ort Temperatur

Stations

Wetterstationen in der Umgebung

Stationsstandort Temp. Windchill Taupunkt Feuchtigkeit Wind Precip. Höhe Aktualisiert Art